Lenox, Georgia
Current Conditions -  °F | °C
As of 9:10 AM on Friday 24 Oct 2014 (Local Time) from KTMA Reporting Station
Clear Clear  
Wind Chill: 55°   Ceiling: Unl
Heat Index: 55°   Visibility: 10mi
Dew Point: 49°   Wind: 0mph
Humidity: 79%   Direction: NA
Pressure: 30.06"   Gusts: NA
Location:  31.27°N, 83.46°W
Report Text: KTMA 241310Z AUTO 00000KT 10SM CLR 13/09 A3006 RMK AO2 T01270092
Loading
Personal Weather Stations






























Interactive Weather Map
Tropical Storm Tracking
New forecast layout! Learn more

10-Day Weather Forecast

Advertisements
Track Severe Weather on mobile